Chipolbrok Star — VRGU3 — position and weather

sailwx.info

Track history (hours):
 
Tides and Currents Weather Stations Pressure Air Temp Water Temp Dewpoint Dewpoint Depression Visibility Wind Speed Wind Dir Waves Ship Positions

Chipolbrok Star

Last reported at 2018-Feb-25 06:35 UTC. Time now 2018-Feb-25 14:06 UTC.
Position N 31°05' E 122°54'.

Length 200 m; draft 7.6 m.

Type: Cargo ship. MMSI: 477748600.

Date/timePositionNaut miles runAvg speedWind from/ knotsBaromVisibWave heightAir tempDewpointWater temp
2018-Feb-25 06:35N 31°05' E 122°54'111.9
2018-Feb-25 06:29N 31°05' E 122°53'612.3
2018-Feb-25 06:00N 31°05' E 122°46'712.4
2018-Feb-25 05:27N 31°05' E 122°38'613.0
2018-Feb-25 05:00N 31°05' E 122°31'5 9.2
2018-Feb-25 04:29N 31°06' E 122°26'510.9
2018-Feb-25 04:00N 31°06' E 122°20'714.1
2018-Feb-25 03:30N 31°09' E 122°13'714.6
2018-Feb-25 03:00N 31°14' E 122°06'714.5
2018-Feb-25 02:31N 31°15' E 121°57'713.8
2018-Feb-25 02:00N 31°17' E 121°50'713.2
2018-Feb-25 01:29N 31°20' E 121°42'811.5
2018-Feb-25 00:50N 31°23' E 121°35'710.6
2018-Feb-25 00:10N 31°27' E 121°28'3 8.9
2018-Feb-24 23:48N 31°29' E 121°24'2 0.0
2018-Feb-23 05:31N 31°30' E 121°23'0 0.0
2018-Feb-23 05:28N 31°30' E 121°23'0 0.0
2018-Feb-23 04:46N 31°30' E 121°23'0 0.0
2018-Feb-23 04:28N 31°30' E 121°23'0 0.0
2018-Feb-23 03:58N 31°30' E 121°23'0 0.0
2018-Feb-23 03:28N 31°30' E 121°23'0 0.0
2018-Feb-22 07:52N 31°30' E 121°23'0 0.3
2018-Feb-22 07:31N 31°30' E 121°23'4 4.9
2018-Feb-22 06:42N 31°28' E 121°27'1 7.5
2018-Feb-22 06:30N 31°27' E 121°28'510.4
2018-Feb-22 06:00N 31°24' E 121°33'1211.6
2018-Feb-22 04:56N 31°18' E 121°46'2812.2
2018-Feb-22 02:40N 31°08' E 122°16'2 7.8
2018-Feb-22 02:28N 31°07' E 122°17'5 9.8
2018-Feb-22 01:57N 31°06' E 122°23'23 0.5
2018-Feb-20 05:39N 31°03' E 122°50'0 0.0
2018-Feb-20 05:30N 31°03' E 122°50'0 0.0
2018-Feb-20 04:30N 31°03' E 122°50'0 0.0
2018-Feb-20 03:57N 31°03' E 122°50'0 0.0
2018-Feb-20 03:24N 31°03' E 122°50'0 0.1
2018-Feb-20 02:21N 31°03' E 122°50'  
Track history (hours):
 
Tides and Currents Weather Stations Pressure Air Temp Water Temp Dewpoint Dewpoint Depression Visibility Wind Speed Wind Dir Waves Ship Positions

Chipolbrok Star

Last reported at 2018-Feb-25 06:35 UTC. Time now 2018-Feb-25 14:06 UTC.
Position N 31°05' E 122°54'.

Length 200 m; draft 7.6 m.

Type: Cargo ship. MMSI: 477748600.

Date/timePositionNaut miles runAvg speedWind from/ knotsBaromVisibWave heightAir tempDewpointWater temp
2018-Feb-25 06:35N 31°05' E 122°54'111.9
2018-Feb-25 06:29N 31°05' E 122°53'612.3
2018-Feb-25 06:00N 31°05' E 122°46'712.4
2018-Feb-25 05:27N 31°05' E 122°38'613.0
2018-Feb-25 05:00N 31°05' E 122°31'5 9.2
2018-Feb-25 04:29N 31°06' E 122°26'510.9
2018-Feb-25 04:00N 31°06' E 122°20'714.1
2018-Feb-25 03:30N 31°09' E 122°13'714.6
2018-Feb-25 03:00N 31°14' E 122°06'714.5
2018-Feb-25 02:31N 31°15' E 121°57'713.8
2018-Feb-25 02:00N 31°17' E 121°50'713.2
2018-Feb-25 01:29N 31°20' E 121°42'811.5
2018-Feb-25 00:50N 31°23' E 121°35'710.6
2018-Feb-25 00:10N 31°27' E 121°28'3 8.9
2018-Feb-24 23:48N 31°29' E 121°24'2 0.0
2018-Feb-23 05:31N 31°30' E 121°23'0 0.0
2018-Feb-23 05:28N 31°30' E 121°23'0 0.0
2018-Feb-23 04:46N 31°30' E 121°23'0 0.0
2018-Feb-23 04:28N 31°30' E 121°23'0 0.0
2018-Feb-23 03:58N 31°30' E 121°23'0 0.0
2018-Feb-23 03:28N 31°30' E 121°23'0 0.0
2018-Feb-22 07:52N 31°30' E 121°23'0 0.3
2018-Feb-22 07:31N 31°30' E 121°23'4 4.9
2018-Feb-22 06:42N 31°28' E 121°27'1 7.5
2018-Feb-22 06:30N 31°27' E 121°28'510.4
2018-Feb-22 06:00N 31°24' E 121°33'1211.6
2018-Feb-22 04:56N 31°18' E 121°46'2812.2
2018-Feb-22 02:40N 31°08' E 122°16'2 7.8
2018-Feb-22 02:28N 31°07' E 122°17'5 9.8
2018-Feb-22 01:57N 31°06' E 122°23'23 0.5
2018-Feb-20 05:39N 31°03' E 122°50'0 0.0
2018-Feb-20 05:30N 31°03' E 122°50'0 0.0
2018-Feb-20 04:30N 31°03' E 122°50'0 0.0
2018-Feb-20 03:57N 31°03' E 122°50'0 0.0
2018-Feb-20 03:24N 31°03' E 122°50'0 0.1
2018-Feb-20 02:21N 31°03' E 122°50'  

Dump ship's entire track history